createdAt,value
2019-03-12T00:00:45.435Z,3.70
2019-03-12T00:05:37.166Z,3.60
2019-03-12T00:10:29.157Z,3.60
2019-03-12T00:15:21.546Z,3.50
2019-03-12T00:20:13.194Z,3.50
2019-03-12T00:25:05.305Z,3.50
2019-03-12T00:29:57.103Z,3.40
2019-03-12T00:34:48.977Z,3.30
2019-03-12T00:39:40.664Z,3.20
2019-03-12T00:44:32.497Z,3.10
2019-03-12T00:49:24.284Z,3.10
2019-03-12T00:54:16.399Z,3.00
2019-03-12T00:59:08.562Z,2.90
2019-03-12T01:04:00.163Z,2.80
2019-03-12T01:08:52.031Z,2.70
2019-03-12T01:13:44.010Z,2.70
2019-03-12T01:18:36.085Z,2.70
2019-03-12T01:23:27.813Z,2.80
2019-03-12T01:28:19.844Z,2.80
2019-03-12T01:33:11.443Z,2.70
2019-03-12T01:38:02.273Z,2.80
2019-03-12T01:42:54.171Z,2.70
2019-03-12T01:47:45.999Z,2.70
2019-03-12T01:52:37.896Z,2.80
2019-03-12T01:57:29.559Z,2.80
2019-03-12T02:02:21.587Z,2.80
2019-03-12T02:07:13.501Z,2.80
2019-03-12T02:12:05.258Z,2.80
2019-03-12T02:16:56.965Z,2.80
2019-03-12T02:21:48.782Z,2.80
2019-03-12T02:26:40.536Z,2.70
2019-03-12T02:31:32.246Z,2.80
2019-03-12T02:36:24.319Z,2.80
2019-03-12T02:41:16.149Z,2.80
2019-03-12T02:46:07.918Z,2.90
2019-03-12T02:50:59.935Z,2.80
2019-03-12T02:55:51.648Z,2.80
2019-03-12T03:00:43.500Z,2.70
2019-03-12T03:05:35.229Z,2.70
2019-03-12T03:10:27.343Z,2.60
2019-03-12T03:15:19.284Z,2.60
2019-03-12T03:20:11.171Z,2.60
2019-03-12T03:25:03.166Z,2.60
2019-03-12T03:29:55.178Z,2.60
2019-03-12T03:34:47.129Z,2.50
2019-03-12T03:39:37.814Z,2.60
2019-03-12T03:44:28.797Z,2.60
2019-03-12T03:49:19.650Z,2.60
2019-03-12T03:54:11.861Z,2.70
2019-03-12T03:59:03.945Z,2.80
2019-03-12T04:03:55.939Z,2.80
2019-03-12T04:08:47.053Z,3.00
2019-03-12T04:13:37.455Z,3.00
2019-03-12T04:18:28.244Z,3.00
2019-03-12T04:23:21.209Z,3.00
2019-03-12T04:28:12.814Z,3.10
2019-03-12T04:33:04.649Z,3.10
2019-03-12T04:37:56.728Z,3.20
2019-03-12T04:42:48.539Z,3.20
2019-03-12T04:47:40.477Z,3.30
2019-03-12T04:52:32.522Z,3.40
2019-03-12T04:57:24.385Z,3.50
2019-03-12T05:02:16.521Z,3.50
2019-03-12T05:07:09.644Z,3.60
2019-03-12T05:12:01.264Z,3.70
2019-03-12T05:16:53.220Z,3.80
2019-03-12T05:21:45.943Z,3.90
2019-03-12T05:26:37.570Z,3.90
2019-03-12T05:31:29.563Z,4.10
2019-03-12T05:36:21.439Z,4.10
2019-03-12T05:41:13.395Z,4.20
2019-03-12T05:46:06.081Z,4.20
2019-03-12T05:50:57.857Z,4.30
2019-03-12T05:55:49.893Z,4.30
2019-03-12T06:00:41.885Z,4.30
2019-03-12T06:05:33.695Z,4.30
2019-03-12T06:10:25.363Z,4.20
2019-03-12T06:15:17.010Z,4.20
2019-03-12T06:20:08.900Z,4.20
2019-03-12T06:25:00.797Z,4.20
2019-03-12T06:29:52.669Z,4.30
2019-03-12T06:34:45.231Z,4.40
2019-03-12T06:39:36.909Z,4.40
2019-03-12T06:44:28.909Z,4.40
2019-03-12T06:49:21.024Z,4.50
2019-03-12T06:54:13.296Z,4.60
2019-03-12T06:59:05.409Z,4.60
2019-03-12T07:03:57.234Z,4.70
2019-03-12T07:08:49.164Z,4.70
2019-03-12T07:13:41.155Z,4.80
2019-03-12T07:18:32.966Z,4.90
2019-03-12T07:23:25.117Z,4.90
2019-03-12T07:28:17.867Z,4.80
2019-03-12T07:33:09.965Z,4.80
2019-03-12T07:38:01.988Z,4.80
2019-03-12T07:42:53.865Z,4.90
2019-03-12T07:47:45.975Z,4.90
2019-03-12T07:52:38.115Z,5.10
2019-03-12T07:57:30.226Z,5.20
2019-03-12T08:02:22.260Z,5.40
2019-03-12T08:07:14.160Z,5.60
2019-03-12T08:12:05.887Z,5.80
2019-03-12T08:16:57.990Z,5.90
2019-03-12T08:21:50.832Z,6.00
2019-03-12T08:26:42.254Z,6.10
2019-03-12T08:31:34.336Z,6.20
2019-03-12T08:36:26.279Z,6.30
2019-03-12T08:41:18.269Z,6.30
2019-03-12T08:46:10.248Z,6.40
2019-03-12T08:51:06.184Z,6.50
2019-03-12T08:55:57.421Z,6.60
2019-03-12T09:00:49.669Z,6.70
2019-03-12T09:05:41.625Z,6.70
2019-03-12T09:10:33.559Z,6.80
2019-03-12T09:15:25.683Z,6.90
2019-03-12T09:20:17.659Z,7.00
2019-03-12T09:25:12.620Z,7.10
2019-03-12T09:30:03.949Z,7.20
2019-03-12T09:34:55.819Z,7.40
2019-03-12T09:39:47.782Z,7.50
2019-03-12T09:44:41.809Z,7.60
2019-03-12T09:49:33.490Z,7.70
2019-03-12T09:54:26.119Z,7.80
2019-03-12T09:59:18.094Z,7.80
2019-03-12T10:04:09.933Z,7.80
2019-03-12T10:09:03.129Z,7.80
2019-03-12T10:13:54.950Z,7.80
2019-03-12T10:18:47.205Z,7.90
2019-03-12T10:23:39.117Z,8.00
2019-03-12T10:28:31.183Z,8.10
2019-03-12T10:33:23.574Z,8.30
2019-03-12T10:38:15.850Z,8.40
2019-03-12T10:43:08.110Z,8.60
2019-03-12T10:47:59.993Z,8.70
2019-03-12T10:52:52.137Z,8.80
2019-03-12T10:57:44.817Z,8.80
2019-03-12T11:02:36.893Z,8.80
2019-03-12T11:07:31.435Z,8.90
2019-03-12T11:12:23.516Z,8.80
2019-03-12T11:17:17.830Z,8.80
2019-03-12T11:22:09.054Z,8.90
2019-03-12T11:27:01.077Z,8.90
2019-03-12T11:31:53.386Z,9.00
2019-03-12T11:36:45.833Z,9.10
2019-03-12T11:41:37.828Z,9.10
2019-03-12T11:46:42.317Z,9.20
2019-03-12T11:51:34.560Z,9.30
2019-03-12T11:56:26.278Z,9.40
2019-03-12T12:01:18.415Z,9.50
2019-03-12T12:06:10.841Z,9.70
2019-03-12T12:11:02.825Z,9.80
2019-03-12T12:15:55.324Z,9.90
2019-03-12T12:20:47.776Z,10.10
2019-03-12T12:25:40.130Z,10.30
2019-03-12T12:30:32.914Z,10.40
2019-03-12T12:35:24.843Z,10.30
2019-03-12T12:40:16.617Z,10.30
2019-03-12T12:45:08.913Z,10.30
2019-03-12T12:50:01.341Z,10.30
2019-03-12T12:54:53.422Z,10.30
2019-03-12T12:59:45.428Z,10.40
2019-03-12T13:04:37.637Z,10.50
2019-03-12T13:09:30.774Z,10.60
2019-03-12T13:14:23.151Z,10.70
2019-03-12T13:19:14.951Z,10.60
2019-03-12T13:24:06.942Z,10.40
2019-03-12T13:28:59.203Z,10.40
2019-03-12T13:33:51.361Z,10.40
2019-03-12T13:38:49.214Z,10.40
2019-03-12T13:43:40.339Z,10.40
2019-03-12T13:48:32.553Z,10.40
2019-03-12T13:53:24.576Z,10.40
2019-03-12T13:58:16.713Z,10.40
2019-03-12T14:03:08.522Z,10.40
2019-03-12T14:08:00.716Z,10.30
2019-03-12T14:12:52.688Z,10.20
2019-03-12T14:17:46.660Z,10.20
2019-03-12T14:22:38.217Z,10.20
2019-03-12T14:27:30.122Z,10.20
2019-03-12T14:32:22.231Z,10.10
2019-03-12T14:37:15.320Z,10.20
2019-03-12T14:42:07.014Z,10.20
2019-03-12T14:46:59.181Z,10.20
2019-03-12T14:51:51.238Z,10.30
2019-03-12T14:56:43.258Z,10.30
2019-03-12T15:01:35.777Z,10.30
2019-03-12T15:06:27.669Z,10.30
2019-03-12T15:11:19.778Z,10.20
2019-03-12T15:16:11.777Z,10.20
2019-03-12T15:21:03.638Z,10.30
2019-03-12T15:25:55.463Z,10.30
2019-03-12T15:30:47.630Z,10.20
2019-03-12T15:35:39.720Z,10.20
2019-03-12T15:40:31.868Z,10.20
2019-03-12T15:45:25.681Z,10.10
2019-03-12T15:50:19.693Z,10.10
2019-03-12T15:55:10.161Z,10.10
2019-03-12T16:00:02.660Z,10.20
2019-03-12T16:04:54.453Z,10.20
2019-03-12T16:09:46.171Z,10.20
2019-03-12T16:14:38.077Z,10.30
2019-03-12T16:19:30.154Z,10.30
2019-03-12T16:24:22.130Z,10.20
2019-03-12T16:29:12.922Z,10.20
2019-03-12T16:34:05.207Z,10.20
2019-03-12T16:38:57.111Z,10.20
2019-03-12T16:43:49.515Z,10.20
2019-03-12T16:48:41.536Z,10.20
2019-03-12T16:53:33.761Z,10.20
2019-03-12T16:58:25.731Z,10.20
2019-03-12T17:03:17.869Z,10.10
2019-03-12T17:08:10.084Z,10.10
2019-03-12T17:13:02.345Z,10.00
2019-03-12T17:17:54.331Z,10.00
2019-03-12T17:22:48.262Z,9.90
2019-03-12T17:27:39.847Z,9.90
2019-03-12T17:32:32.112Z,9.90
2019-03-12T17:37:26.416Z,9.80
2019-03-12T17:42:17.943Z,9.90
2019-03-12T17:47:10.080Z,9.80
2019-03-12T17:52:02.043Z,9.90
2019-03-12T17:56:54.085Z,9.90
2019-03-12T18:01:46.321Z,10.00
2019-03-12T18:06:38.446Z,10.00
2019-03-12T18:11:30.752Z,10.00
2019-03-12T18:16:22.784Z,10.00
2019-03-12T18:21:15.270Z,10.00
2019-03-12T18:26:09.829Z,10.00
2019-03-12T18:31:01.393Z,10.00
2019-03-12T18:35:53.566Z,10.00
2019-03-12T18:40:45.809Z,10.10
2019-03-12T18:45:37.924Z,10.10
2019-03-12T18:50:29.918Z,10.10
2019-03-12T18:55:21.916Z,10.10
2019-03-12T19:00:14.638Z,10.10
2019-03-12T19:05:06.515Z,10.10
2019-03-12T19:09:58.643Z,10.00
2019-03-12T19:14:50.733Z,10.00
2019-03-12T19:19:42.596Z,9.80
2019-03-12T19:24:34.455Z,9.60
2019-03-12T19:29:26.102Z,9.30
2019-03-12T19:34:18.020Z,9.10
2019-03-12T19:39:09.909Z,8.90
2019-03-12T19:44:01.889Z,8.90
2019-03-12T19:48:54.009Z,8.80
2019-03-12T19:53:46.044Z,8.80
2019-03-12T19:58:38.087Z,8.60
2019-03-12T20:03:30.348Z,8.60
2019-03-12T20:08:22.430Z,8.60
2019-03-12T20:13:14.748Z,8.50
2019-03-12T20:18:06.755Z,8.30
2019-03-12T20:22:58.777Z,8.30
2019-03-12T20:27:50.887Z,8.30
2019-03-12T20:32:42.988Z,8.40
2019-03-12T20:37:35.368Z,8.50
2019-03-12T20:42:27.615Z,8.60
2019-03-12T20:47:19.913Z,8.70
2019-03-12T20:52:12.001Z,8.80
2019-03-12T20:57:04.127Z,8.80
2019-03-12T21:01:56.273Z,8.90
2019-03-12T21:06:47.944Z,8.50
2019-03-12T21:11:38.487Z,7.40
2019-03-12T21:16:30.061Z,6.60
2019-03-12T21:21:21.899Z,6.00
2019-03-12T21:26:12.998Z,5.50
2019-03-12T21:31:04.803Z,5.20
2019-03-12T21:35:56.770Z,4.90
2019-03-12T21:40:47.613Z,4.80
2019-03-12T21:45:38.299Z,4.70
2019-03-12T21:50:29.200Z,4.70
2019-03-12T21:55:20.927Z,4.70
2019-03-12T22:00:13.185Z,4.70
2019-03-12T22:05:04.950Z,4.70
2019-03-12T22:09:56.794Z,4.70
2019-03-12T22:14:48.567Z,4.70
2019-03-12T22:19:40.503Z,4.70
2019-03-12T22:24:32.424Z,4.70
2019-03-12T22:29:24.516Z,4.70
2019-03-12T22:34:18.797Z,4.70
2019-03-12T22:39:10.205Z,4.70
2019-03-12T22:44:02.309Z,4.70
2019-03-12T22:48:54.352Z,4.70
2019-03-12T22:53:46.239Z,4.70
2019-03-12T22:58:38.358Z,4.70
2019-03-12T23:03:30.398Z,4.80
2019-03-12T23:08:22.445Z,4.80
2019-03-12T23:13:14.228Z,4.80
2019-03-12T23:18:06.357Z,4.80
2019-03-12T23:22:58.276Z,4.80
2019-03-12T23:27:50.368Z,4.90
2019-03-12T23:32:42.142Z,4.90
2019-03-12T23:37:34.124Z,4.90
2019-03-12T23:42:26.110Z,4.90
2019-03-12T23:47:18.335Z,4.90
2019-03-12T23:52:09.667Z,4.90
2019-03-12T23:57:00.369Z,4.90
